createdAt,value
2023-10-20T00:00:47.912Z,5.28
2023-10-20T00:03:50.994Z,4.68
2023-10-20T00:06:52.708Z,4.55
2023-10-20T00:09:54.379Z,4.68
2023-10-20T00:12:56.052Z,4.70
2023-10-20T00:15:57.882Z,4.80
2023-10-20T00:19:00.972Z,4.95
2023-10-20T00:22:02.675Z,4.72
2023-10-20T00:25:04.898Z,4.45
2023-10-20T00:28:06.838Z,4.85
2023-10-20T00:31:08.561Z,5.32
2023-10-20T00:34:11.650Z,4.47
2023-10-20T00:37:13.360Z,4.57
2023-10-20T00:40:15.576Z,5.05
2023-10-20T00:43:17.371Z,4.55
2023-10-20T00:46:19.642Z,5.53
2023-10-20T00:49:22.989Z,5.55
2023-10-20T00:58:29.644Z,5.03
2023-10-20T01:01:32.184Z,5.28
2023-10-20T01:04:35.404Z,4.97
2023-10-20T01:07:37.133Z,5.18
2023-10-20T01:10:38.792Z,5.35
2023-10-20T01:13:40.489Z,5.55
2023-10-20T01:16:42.211Z,4.88
2023-10-20T01:19:45.317Z,5.35
2023-10-20T01:22:47.016Z,6.13
2023-10-20T01:25:50.127Z,5.18
2023-10-20T01:28:51.823Z,4.85
2023-10-20T01:31:53.514Z,5.72
2023-10-20T01:34:55.189Z,5.57
2023-10-20T01:37:56.912Z,7.32
2023-10-20T01:41:00.015Z,13.40
2023-10-20T01:44:01.795Z,9.32
2023-10-20T01:47:03.625Z,7.05
2023-10-20T01:50:06.139Z,6.50
2023-10-20T01:53:07.980Z,5.25
2023-10-20T01:56:11.164Z,5.55
2023-10-20T01:59:12.894Z,5.55
2023-10-20T02:02:14.660Z,5.75
2023-10-20T02:05:16.649Z,6.38
2023-10-20T02:08:18.519Z,5.80
2023-10-20T02:11:21.670Z,6.00
2023-10-20T02:14:23.387Z,5.95
2023-10-20T02:17:25.269Z,5.75
2023-10-20T02:20:27.011Z,5.60
2023-10-20T02:23:28.717Z,5.75
2023-10-20T02:26:31.877Z,6.90
2023-10-20T02:29:33.685Z,6.28
2023-10-20T02:32:35.482Z,6.57
2023-10-20T02:35:41.053Z,6.82
2023-10-20T02:38:42.810Z,5.80
2023-10-20T02:41:45.905Z,6.35
2023-10-20T02:44:47.569Z,6.25
2023-10-20T02:47:51.634Z,6.35
2023-10-20T02:50:53.528Z,6.18
2023-10-20T02:53:55.237Z,6.00
2023-10-20T02:56:58.304Z,6.93
2023-10-20T03:00:00.022Z,6.75
2023-10-20T03:03:01.783Z,7.05
2023-10-20T03:06:04.925Z,7.03
2023-10-20T03:09:06.579Z,6.55
2023-10-20T03:12:09.608Z,6.07
2023-10-20T03:15:11.497Z,6.22
2023-10-20T03:18:13.188Z,7.10
2023-10-20T03:21:14.898Z,8.48
2023-10-20T03:24:16.596Z,14.23
2023-10-20T03:27:19.770Z,11.88
2023-10-20T03:30:21.493Z,8.32
2023-10-20T03:33:23.293Z,6.13
2023-10-20T03:36:25.103Z,8.10
2023-10-20T03:39:26.783Z,6.82
2023-10-20T03:42:29.821Z,6.45
2023-10-20T03:45:31.570Z,6.05
2023-10-20T03:48:33.502Z,6.15
2023-10-20T03:51:35.153Z,6.22
2023-10-20T03:54:36.864Z,5.75
2023-10-20T03:57:39.982Z,5.90
2023-10-20T04:00:41.687Z,6.45
2023-10-20T04:03:43.449Z,6.15
2023-10-20T04:06:45.371Z,5.70
2023-10-20T04:09:47.103Z,6.32
2023-10-20T04:12:50.203Z,5.65
2023-10-20T04:15:52.132Z,5.38
2023-10-20T04:18:53.816Z,6.13
2023-10-20T04:21:55.503Z,5.95
2023-10-20T04:24:57.202Z,6.05
2023-10-20T04:28:00.575Z,5.85
2023-10-20T04:34:03.793Z,5.80
2023-10-20T04:37:07.188Z,5.80
2023-10-20T04:40:11.628Z,5.55
2023-10-20T04:43:14.872Z,5.13
2023-10-20T04:46:16.539Z,5.47
2023-10-20T04:49:18.248Z,5.03
2023-10-20T04:52:19.987Z,5.82
2023-10-20T04:55:21.738Z,6.57
2023-10-20T04:58:24.786Z,5.65
2023-10-20T05:01:26.523Z,6.03
2023-10-20T05:04:28.847Z,5.47
2023-10-20T05:07:30.522Z,5.38
2023-10-20T05:10:33.044Z,6.03
2023-10-20T05:13:36.205Z,5.80
2023-10-20T05:16:37.920Z,5.07
2023-10-20T05:19:40.333Z,4.93
2023-10-20T05:22:42.295Z,5.15
2023-10-20T05:25:47.659Z,5.35
2023-10-20T05:28:50.697Z,6.50
2023-10-20T05:31:52.388Z,6.40
2023-10-20T05:34:54.077Z,8.02
2023-10-20T05:37:55.792Z,15.65
2023-10-20T05:40:58.373Z,12.07
2023-10-20T05:44:01.445Z,9.02
2023-10-20T05:47:03.138Z,6.63
2023-10-20T05:50:05.792Z,7.35
2023-10-20T05:53:07.697Z,7.63
2023-10-20T05:56:11.440Z,7.32
2023-10-20T05:59:14.820Z,8.55
2023-10-20T06:02:16.574Z,9.02
2023-10-20T06:05:18.307Z,16.20
2023-10-20T06:08:20.057Z,10.35
2023-10-20T06:11:21.816Z,6.80
2023-10-20T06:14:24.946Z,5.72
2023-10-20T06:17:26.846Z,5.20
2023-10-20T06:20:28.632Z,5.65
2023-10-20T06:23:30.361Z,5.82
2023-10-20T06:26:32.098Z,5.35
2023-10-20T06:29:35.340Z,5.82
2023-10-20T06:35:38.834Z,4.97
2023-10-20T06:38:40.580Z,5.43
2023-10-20T06:41:42.554Z,5.47
2023-10-20T06:44:45.685Z,4.57
2023-10-20T06:47:47.510Z,4.97
2023-10-20T06:50:49.447Z,5.35
2023-10-20T06:53:52.774Z,6.78
2023-10-20T06:56:56.521Z,8.70
2023-10-20T06:59:59.562Z,10.32
2023-10-20T07:03:01.360Z,7.78
2023-10-20T07:06:03.532Z,6.03
2023-10-20T07:09:05.470Z,7.22
2023-10-20T07:12:08.903Z,5.65
2023-10-20T07:15:13.512Z,17.95
2023-10-20T07:18:15.309Z,11.15
2023-10-20T07:21:17.017Z,9.88
2023-10-20T07:24:18.701Z,9.45
2023-10-20T07:27:20.424Z,15.38
2023-10-20T07:30:23.639Z,9.90
2023-10-20T07:33:25.369Z,7.47
2023-10-20T07:36:27.049Z,9.63
2023-10-20T07:39:28.742Z,8.63
2023-10-20T07:42:30.448Z,13.82
2023-10-20T07:45:38.441Z,10.02
2023-10-20T07:48:40.378Z,9.25
2023-10-20T07:51:42.110Z,8.23
2023-10-20T07:54:43.769Z,4.88
2023-10-20T07:57:45.432Z,6.65
2023-10-20T08:00:48.442Z,5.38
2023-10-20T08:03:50.484Z,5.85
2023-10-20T08:06:52.455Z,5.72
2023-10-20T08:09:54.355Z,5.75
2023-10-20T08:12:56.101Z,5.72
2023-10-20T08:16:02.206Z,7.65
2023-10-20T08:19:04.175Z,6.60
2023-10-20T08:22:05.832Z,6.45
2023-10-20T08:25:08.765Z,11.52
2023-10-20T08:28:10.448Z,5.13
2023-10-20T08:31:13.622Z,5.60
2023-10-20T08:34:15.303Z,6.47
2023-10-20T08:37:17.177Z,5.30
2023-10-20T08:40:19.027Z,5.13
2023-10-20T08:43:20.977Z,6.05
2023-10-20T08:46:24.168Z,4.40
2023-10-20T08:52:28.712Z,4.10
2023-10-20T08:55:30.359Z,5.05
2023-10-20T08:58:32.499Z,4.22
2023-10-20T09:01:36.355Z,4.63
2023-10-20T09:04:38.162Z,4.65
2023-10-20T09:07:39.960Z,4.20
2023-10-20T09:10:43.558Z,4.03
2023-10-20T09:13:47.713Z,4.43
2023-10-20T09:16:51.364Z,4.30
2023-10-20T09:19:53.021Z,4.05
2023-10-20T09:22:54.762Z,4.80
2023-10-20T09:25:56.417Z,3.88
2023-10-20T09:29:01.625Z,4.15
2023-10-20T09:32:05.065Z,4.43
2023-10-20T09:35:07.719Z,4.75
2023-10-20T09:38:11.375Z,3.95
2023-10-20T09:41:14.517Z,3.92
2023-10-20T09:47:29.520Z,4.95
2023-10-20T09:50:33.078Z,4.80
2023-10-20T09:53:34.902Z,4.15
2023-10-20T09:56:37.105Z,8.05
2023-10-20T09:59:39.785Z,4.18
2023-10-20T10:02:42.994Z,4.70
2023-10-20T10:08:49.041Z,4.00
2023-10-20T10:11:55.715Z,3.35
2023-10-20T10:14:58.591Z,4.03
2023-10-20T10:18:09.100Z,3.78
2023-10-20T10:21:10.896Z,3.90
2023-10-20T10:24:14.274Z,3.38
2023-10-20T10:27:16.533Z,3.60
2023-10-20T10:30:27.401Z,3.95
2023-10-20T10:33:30.543Z,4.25
2023-10-20T10:36:42.927Z,4.63
2023-10-20T10:39:44.667Z,3.70
2023-10-20T10:42:47.799Z,4.00
2023-10-20T10:49:07.593Z,3.42
2023-10-20T10:52:09.294Z,3.92
2023-10-20T10:55:11.000Z,3.65
2023-10-20T10:58:13.838Z,3.63
2023-10-20T11:01:15.658Z,3.63
2023-10-20T11:04:19.314Z,3.60
2023-10-20T11:07:21.360Z,3.35
2023-10-20T11:10:25.425Z,3.80
2023-10-20T11:13:28.527Z,3.50
2023-10-20T11:19:33.528Z,4.13
2023-10-20T11:22:38.239Z,3.45
2023-10-20T11:25:40.482Z,3.03
2023-10-20T11:28:42.173Z,4.20
2023-10-20T11:31:43.847Z,3.40
2023-10-20T11:34:46.953Z,4.20
2023-10-20T11:37:49.013Z,3.80
2023-10-20T11:40:51.050Z,3.42
2023-10-20T11:43:52.977Z,3.80
2023-10-20T11:46:55.075Z,4.22
2023-10-20T11:49:58.068Z,4.25
2023-10-20T11:56:01.236Z,3.85
2023-10-20T11:59:02.904Z,3.95
2023-10-20T12:02:04.594Z,4.18
2023-10-20T12:05:08.755Z,3.30
2023-10-20T12:08:10.470Z,4.20
2023-10-20T12:11:12.233Z,3.70
2023-10-20T12:14:13.924Z,3.83
2023-10-20T12:17:15.775Z,4.07
2023-10-20T12:20:18.940Z,3.92
2023-10-20T12:23:20.665Z,4.25
2023-10-20T12:26:22.441Z,3.75
2023-10-20T12:29:24.278Z,5.88
2023-10-20T12:32:26.093Z,4.68
2023-10-20T12:35:29.347Z,4.47
2023-10-20T12:38:32.074Z,3.90
2023-10-20T12:41:33.951Z,4.05
2023-10-20T12:44:36.226Z,4.65
2023-10-20T12:47:38.390Z,5.47
2023-10-20T12:50:41.559Z,4.65
2023-10-20T12:53:43.352Z,5.50
2023-10-20T12:56:45.117Z,4.25
2023-10-20T12:59:46.928Z,4.72
2023-10-20T13:02:48.727Z,5.25
2023-10-20T13:05:51.949Z,4.20
2023-10-20T13:08:53.706Z,4.30
2023-10-20T13:11:55.589Z,4.07
2023-10-20T13:14:57.308Z,4.18
2023-10-20T13:17:59.212Z,5.00
2023-10-20T13:21:04.531Z,3.80
2023-10-20T13:24:07.026Z,5.00
2023-10-20T13:27:08.709Z,3.78
2023-10-20T13:30:11.007Z,4.50
2023-10-20T13:33:12.798Z,4.15
2023-10-20T13:36:18.229Z,4.35
2023-10-20T13:42:32.405Z,4.60
2023-10-20T13:45:34.093Z,4.28
2023-10-20T13:48:35.875Z,4.22
2023-10-20T13:51:38.968Z,4.13
2023-10-20T13:57:42.158Z,4.28
2023-10-20T14:00:44.001Z,4.05
2023-10-20T14:03:45.997Z,4.63
2023-10-20T14:06:49.170Z,4.55
2023-10-20T14:12:52.343Z,4.68
2023-10-20T14:15:54.059Z,4.93
2023-10-20T14:18:55.773Z,4.93
2023-10-20T14:21:58.897Z,3.80
2023-10-20T14:25:00.566Z,4.43
2023-10-20T14:28:02.259Z,5.05
2023-10-20T14:31:05.106Z,4.50
2023-10-20T14:34:06.800Z,4.30
2023-10-20T14:37:09.868Z,4.00
2023-10-20T14:43:13.680Z,4.32
2023-10-20T14:46:15.387Z,4.07
2023-10-20T14:49:17.121Z,3.78
2023-10-20T14:52:20.246Z,4.13
2023-10-20T14:58:23.400Z,4.72
2023-10-20T15:01:25.135Z,6.75
2023-10-20T15:04:30.821Z,5.22
2023-10-20T15:07:34.291Z,4.50
2023-10-20T15:13:37.797Z,5.75
2023-10-20T15:16:39.528Z,5.03
2023-10-20T15:19:41.278Z,5.70
2023-10-20T15:22:44.344Z,4.35
2023-10-20T15:28:48.268Z,6.72
2023-10-20T15:31:50.062Z,4.82
2023-10-20T15:34:51.865Z,4.50
2023-10-20T15:37:54.905Z,5.03
2023-10-20T15:40:57.757Z,5.13
2023-10-20T15:43:59.436Z,4.13
2023-10-20T15:47:01.137Z,5.43
2023-10-20T15:50:02.878Z,4.60
2023-10-20T15:53:05.973Z,5.22
2023-10-20T15:59:09.189Z,4.68
2023-10-20T16:02:10.881Z,4.32
2023-10-20T16:05:12.658Z,4.88
2023-10-20T16:08:15.655Z,4.70
2023-10-20T16:11:17.363Z,5.38
2023-10-20T16:14:19.122Z,4.70
2023-10-20T16:17:20.783Z,4.32
2023-10-20T16:20:22.794Z,4.88
2023-10-20T16:23:25.896Z,5.15
2023-10-20T16:29:29.169Z,5.28
2023-10-20T16:32:31.266Z,4.95
2023-10-20T16:35:33.127Z,5.07
2023-10-20T16:38:36.573Z,4.28
2023-10-20T16:41:38.560Z,5.00
2023-10-20T16:44:40.640Z,5.13
2023-10-20T16:47:42.537Z,4.93
2023-10-20T16:50:44.836Z,4.82
2023-10-20T16:53:48.413Z,5.68
2023-10-20T16:56:52.576Z,4.88
2023-10-20T16:59:54.396Z,4.55
2023-10-20T17:02:56.331Z,4.50
2023-10-20T17:05:58.710Z,5.40
2023-10-20T17:09:02.385Z,4.60
2023-10-20T17:12:05.592Z,4.78
2023-10-20T17:15:07.990Z,5.00
2023-10-20T17:18:10.257Z,5.10
2023-10-20T17:21:12.527Z,4.13
2023-10-20T17:24:16.204Z,4.55
2023-10-20T17:27:19.012Z,5.05
2023-10-20T17:30:20.854Z,4.78
2023-10-20T17:33:23.110Z,5.20
2023-10-20T17:36:25.932Z,4.30
2023-10-20T17:39:29.770Z,4.82
2023-10-20T17:42:32.148Z,5.78
2023-10-20T17:45:38.733Z,5.97
2023-10-20T17:48:41.558Z,5.28
2023-10-20T17:51:43.541Z,4.85
2023-10-20T17:54:47.345Z,4.38
2023-10-20T17:57:50.050Z,5.03
2023-10-20T18:00:52.303Z,4.35
2023-10-20T18:03:54.408Z,5.18
2023-10-20T18:06:56.686Z,5.30
2023-10-20T18:10:00.751Z,4.82
2023-10-20T18:13:03.690Z,4.82
2023-10-20T18:16:05.465Z,4.60
2023-10-20T18:19:08.150Z,4.03
2023-10-20T18:22:11.032Z,6.97
2023-10-20T18:25:16.768Z,5.90
2023-10-20T18:28:19.922Z,5.63
2023-10-20T18:34:24.123Z,4.85
2023-10-20T18:37:28.040Z,5.07
2023-10-20T18:40:35.029Z,5.70
2023-10-20T18:43:39.023Z,5.20
2023-10-20T18:46:42.216Z,5.78
2023-10-20T18:49:45.456Z,5.30
2023-10-20T18:55:52.411Z,6.63
2023-10-20T18:58:55.375Z,5.13
2023-10-20T19:02:00.889Z,3.90
2023-10-20T19:05:04.379Z,4.53
2023-10-20T19:08:10.742Z,4.38
2023-10-20T19:11:15.390Z,4.57
2023-10-20T19:14:20.232Z,4.28
2023-10-20T19:17:23.498Z,4.50
2023-10-20T19:20:26.847Z,4.50
2023-10-20T19:23:30.503Z,4.18
2023-10-20T19:26:37.731Z,4.13
2023-10-20T19:29:40.737Z,5.68
2023-10-20T19:32:42.572Z,4.65
2023-10-20T19:35:44.602Z,3.72
2023-10-20T19:38:47.530Z,5.00
2023-10-20T19:41:52.085Z,4.88
2023-10-20T19:44:56.672Z,4.82
2023-10-20T19:48:00.421Z,4.00
2023-10-20T19:51:02.941Z,3.72
2023-10-20T19:54:08.627Z,4.45
2023-10-20T19:57:13.420Z,5.65
2023-10-20T20:00:16.107Z,4.40
2023-10-20T20:03:18.575Z,4.88
2023-10-20T20:06:20.956Z,4.72
2023-10-20T20:09:23.522Z,4.72
2023-10-20T20:12:27.135Z,4.60
2023-10-20T20:15:28.880Z,4.18
2023-10-20T20:18:32.557Z,4.78
2023-10-20T20:21:34.333Z,3.90
2023-10-20T20:24:36.460Z,4.43
2023-10-20T20:27:40.060Z,4.57
2023-10-20T20:30:42.066Z,4.32
2023-10-20T20:33:43.843Z,4.10
2023-10-20T20:36:45.794Z,4.60
2023-10-20T20:39:47.498Z,4.95
2023-10-20T20:42:50.670Z,5.57
2023-10-20T20:48:54.501Z,5.40
2023-10-20T20:51:56.222Z,5.22
2023-10-20T20:54:57.947Z,5.15
2023-10-20T20:58:01.029Z,4.32
2023-10-20T21:01:08.733Z,6.00
2023-10-20T21:04:10.850Z,5.43
2023-10-20T21:07:12.657Z,4.55
2023-10-20T21:10:14.451Z,4.32
2023-10-20T21:13:17.517Z,5.05
2023-10-20T21:19:20.922Z,4.80
2023-10-20T21:22:22.715Z,4.65
2023-10-20T21:25:24.423Z,4.85
2023-10-20T21:28:27.504Z,4.60
2023-10-20T21:34:30.764Z,4.65
2023-10-20T21:37:32.459Z,5.30
2023-10-20T21:40:34.192Z,4.53
2023-10-20T21:43:37.303Z,4.93
2023-10-20T21:49:40.690Z,4.68
2023-10-20T21:52:42.928Z,5.32
2023-10-20T21:55:44.578Z,4.68
2023-10-20T21:58:47.669Z,4.10
2023-10-20T22:02:08.290Z,4.80
2023-10-20T22:05:11.164Z,4.53
2023-10-20T22:08:12.834Z,5.18
2023-10-20T22:11:14.532Z,4.68
2023-10-20T22:14:17.594Z,4.72
2023-10-20T22:17:19.281Z,5.40
2023-10-20T22:20:20.950Z,4.78
2023-10-20T22:23:22.671Z,4.72
2023-10-20T22:26:24.375Z,4.80
2023-10-20T22:29:27.418Z,5.25
2023-10-20T22:32:29.164Z,5.53
2023-10-20T22:35:30.859Z,4.30
2023-10-20T22:38:32.724Z,4.13
2023-10-20T22:41:34.504Z,4.30
2023-10-20T22:44:37.616Z,5.07
2023-10-20T22:50:42.494Z,4.38
2023-10-20T22:53:44.203Z,4.32
2023-10-20T22:56:45.975Z,4.28
2023-10-20T22:59:49.136Z,5.65
2023-10-20T23:05:52.562Z,4.35
2023-10-20T23:08:54.327Z,5.22
2023-10-20T23:11:56.090Z,4.45
2023-10-20T23:14:59.399Z,4.68
2023-10-20T23:18:01.252Z,4.75
2023-10-20T23:21:03.137Z,4.40
2023-10-20T23:24:05.561Z,5.32
2023-10-20T23:27:07.391Z,4.50
2023-10-20T23:30:11.984Z,4.55
2023-10-20T23:33:14.024Z,4.18
2023-10-20T23:36:15.795Z,4.68
2023-10-20T23:39:17.516Z,5.03
2023-10-20T23:42:19.229Z,4.93
2023-10-20T23:45:22.428Z,4.65
2023-10-20T23:51:25.772Z,4.20
2023-10-20T23:54:27.442Z,4.20
2023-10-20T23:57:29.074Z,4.13
